Amalia — SX8170 — position and weather

sailwx.info

Track history (hours):
 
Tides and Currents Weather Stations Pressure Air Temp Water Temp Dewpoint Dewpoint Depression Visibility Wind Speed Wind Dir Waves Ship Positions

Amalia

Last reported at 2017-Oct-09 09:15 UTC. Time now 2017-Oct-17 22:31 UTC.
Position N 37°57' E 023°33'.
Warning: this ship's position is 8 days out of date.

; draft 2.9 m.

Type: Tug. MMSI: 237092200.

Date/timePositionNaut miles runAvg speedWind from/ knotsBaromVisibWave heightAir tempDewpointWater temp
2017-Oct-09 09:15N 37°57' E 023°33'0 0.0
2017-Oct-09 09:00N 37°57' E 023°33'0 0.0
2017-Oct-09 08:30N 37°57' E 023°33'0 0.0
2017-Oct-09 07:58N 37°57' E 023°33'0 0.1
2017-Oct-09 07:28N 37°57' E 023°33'0 0.0
2017-Oct-09 06:58N 37°57' E 023°33'0 0.0
2017-Oct-09 06:29N 37°57' E 023°33'0 0.1
2017-Oct-09 06:01N 37°57' E 023°33'2 3.7
2017-Oct-09 05:31N 37°56' E 023°34'4 7.8
2017-Oct-09 05:01N 37°53' E 023°31'4 7.9
2017-Oct-09 04:31N 37°51' E 023°26'4 8.0
2017-Oct-09 04:01N 37°51' E 023°21'4 7.6
2017-Oct-09 03:27N 37°52' E 023°16'3 7.7
2017-Oct-09 03:00N 37°53' E 023°12'4 7.5
2017-Oct-09 02:31N 37°54' E 023°08'2 3.6
2017-Oct-09 01:58N 37°55' E 023°05'0 0.0
2017-Oct-09 01:28N 37°55' E 023°05'0 0.0
2017-Oct-09 00:58N 37°55' E 023°05'0 0.0
2017-Oct-09 00:28N 37°55' E 023°05'0 0.0
2017-Oct-08 23:58N 37°55' E 023°05'0 0.0
2017-Oct-08 23:28N 37°55' E 023°05'0 0.0
2017-Oct-08 22:58N 37°55' E 023°05'0 0.0
2017-Oct-08 22:28N 37°55' E 023°05'0 0.0
2017-Oct-08 21:58N 37°55' E 023°05'0 0.0
2017-Oct-08 21:28N 37°55' E 023°05'0 0.0
2017-Oct-08 20:58N 37°55' E 023°05'0 0.0
2017-Oct-08 20:28N 37°55' E 023°05'0 0.0
2017-Oct-08 19:58N 37°55' E 023°05'0 0.0
2017-Oct-08 19:28N 37°55' E 023°05'0 0.0
2017-Oct-08 18:58N 37°55' E 023°05'0 0.0
2017-Oct-08 18:28N 37°55' E 023°05'0 0.0
2017-Oct-08 17:58N 37°55' E 023°05'0 0.0
2017-Oct-08 17:28N 37°55' E 023°05'0 0.0
2017-Oct-08 16:58N 37°55' E 023°05'0 0.0
2017-Oct-08 16:28N 37°55' E 023°05'0 0.0
2017-Oct-08 15:58N 37°55' E 023°05'0 0.0
2017-Oct-08 15:28N 37°55' E 023°05'0 0.0
2017-Oct-08 14:58N 37°55' E 023°05'0 0.0
2017-Oct-08 14:30N 37°55' E 023°05'0 0.0
2017-Oct-08 14:00N 37°55' E 023°05'0 0.2
2017-Oct-08 13:30N 37°55' E 023°05'0 0.0
2017-Oct-08 13:00N 37°55' E 023°05'0 0.0
2017-Oct-08 12:30N 37°55' E 023°05'0 0.0
2017-Oct-08 12:00N 37°55' E 023°05'0 0.0
2017-Oct-08 11:30N 37°55' E 023°05'0 0.0
2017-Oct-08 11:00N 37°55' E 023°05'0 0.0
2017-Oct-08 10:30N 37°55' E 023°05'0 0.0
2017-Oct-08 10:00N 37°55' E 023°05'0 0.0
2017-Oct-08 09:30N 37°55' E 023°05'0 0.0
2017-Oct-08 09:00N 37°55' E 023°05'0 0.9
2017-Oct-08 08:30N 37°54' E 023°05'1 1.1
2017-Oct-08 08:00N 37°55' E 023°06'0 0.1
2017-Oct-08 07:30N 37°55' E 023°06'0 0.3
2017-Oct-08 07:00N 37°55' E 023°06'1 1.2
2017-Oct-08 06:30N 37°55' E 023°05'0 0.0
2017-Oct-08 05:59N 37°55' E 023°05'0 0.0
2017-Oct-08 05:29N 37°55' E 023°05'0 0.0
2017-Oct-08 04:59N 37°55' E 023°05'0 0.0
2017-Oct-08 04:29N 37°55' E 023°05'0 0.0
2017-Oct-08 03:59N 37°55' E 023°05'0 0.0
2017-Oct-08 03:29N 37°55' E 023°05'0 0.0
2017-Oct-08 02:59N 37°55' E 023°05'0 0.0
2017-Oct-08 02:29N 37°55' E 023°05'0 0.0
2017-Oct-08 01:59N 37°55' E 023°05'0 0.0
2017-Oct-08 01:29N 37°55' E 023°05'0 0.0
2017-Oct-08 00:59N 37°55' E 023°05'0 0.0
2017-Oct-08 00:29N 37°55' E 023°05'0 0.0
2017-Oct-07 23:59N 37°55' E 023°05'0 0.0
2017-Oct-07 23:29N 37°55' E 023°05'0 0.0
2017-Oct-07 22:59N 37°55' E 023°05'0 0.0
2017-Oct-07 22:29N 37°55' E 023°05'0 0.0
2017-Oct-07 21:59N 37°55' E 023°05'0 0.0
2017-Oct-07 21:30N 37°55' E 023°05'0 0.0
2017-Oct-07 21:00N 37°55' E 023°05'0 0.0
2017-Oct-07 20:30N 37°55' E 023°05'0 0.0
2017-Oct-07 20:00N 37°55' E 023°05'0 0.0
2017-Oct-07 19:30N 37°55' E 023°05'0 0.0
2017-Oct-07 19:00N 37°55' E 023°05'0 0.0
2017-Oct-07 18:30N 37°55' E 023°05'0 0.0
2017-Oct-07 18:00N 37°55' E 023°05'0 0.0
2017-Oct-07 17:30N 37°55' E 023°05'0 0.0
2017-Oct-07 17:00N 37°55' E 023°05'0 0.0
2017-Oct-07 16:30N 37°55' E 023°05'0 0.4
2017-Oct-07 16:00N 37°55' E 023°05'0 0.4
2017-Oct-07 15:30N 37°55' E 023°05'0 0.0
2017-Oct-07 15:00N 37°55' E 023°05'0 0.2
2017-Oct-07 14:29N 37°55' E 023°05'0 0.2
2017-Oct-07 14:00N 37°55' E 023°05'0 0.0
2017-Oct-07 13:30N 37°55' E 023°05'0 0.0
2017-Oct-07 13:00N 37°55' E 023°05'0 0.0
2017-Oct-07 12:30N 37°55' E 023°05'0 0.0
2017-Oct-07 12:00N 37°55' E 023°05'0 0.0
2017-Oct-07 11:30N 37°55' E 023°05'0 0.0
2017-Oct-07 11:00N 37°55' E 023°05'0 0.0
2017-Oct-07 10:30N 37°55' E 023°05'0 0.0
2017-Oct-07 10:00N 37°55' E 023°05'0 0.0
2017-Oct-07 09:30N 37°55' E 023°05'0 0.0
2017-Oct-07 09:00N 37°55' E 023°05'0 0.7
2017-Oct-07 08:31N 37°55' E 023°05'1 1.0
2017-Oct-07 08:00N 37°54' E 023°05'0 0.0
2017-Oct-07 07:30N 37°54' E 023°05'1 1.8
2017-Oct-07 07:00N 37°55' E 023°05'0 0.0
2017-Oct-07 06:30N 37°55' E 023°05'0 0.0
2017-Oct-07 06:00N 37°55' E 023°05'0 0.0
2017-Oct-07 05:30N 37°55' E 023°05'0 0.0
2017-Oct-07 05:00N 37°55' E 023°05'0 0.0
2017-Oct-07 04:30N 37°55' E 023°05'0 0.0
2017-Oct-07 04:00N 37°55' E 023°05'0 0.0
2017-Oct-07 03:30N 37°55' E 023°05'0 0.0
2017-Oct-07 03:00N 37°55' E 023°05'0 0.0
2017-Oct-07 02:30N 37°55' E 023°05'0 0.0
2017-Oct-07 02:00N 37°55' E 023°05'0 0.0
2017-Oct-07 01:30N 37°55' E 023°05'0 0.0
2017-Oct-07 01:00N 37°55' E 023°05'0 0.0
2017-Oct-07 00:30N 37°55' E 023°05'0 0.0
2017-Oct-07 00:00N 37°55' E 023°05'0 0.0
2017-Oct-06 23:30N 37°55' E 023°05'0 0.0
2017-Oct-06 23:00N 37°55' E 023°05'0 0.1
2017-Oct-06 22:30N 37°55' E 023°05'0 0.1
2017-Oct-06 22:00N 37°55' E 023°05'0 0.0
2017-Oct-06 21:28N 37°55' E 023°05'0 0.0
2017-Oct-06 20:58N 37°55' E 023°05'0 0.0
2017-Oct-06 20:28N 37°55' E 023°05'0 0.0
2017-Oct-06 19:58N 37°55' E 023°05'0 0.1
2017-Oct-06 19:30N 37°55' E 023°05'0 0.1
2017-Oct-06 18:59N 37°55' E 023°05'0 0.0
2017-Oct-06 18:29N 37°55' E 023°05'0 0.0
2017-Oct-06 17:59N 37°55' E 023°05'0 0.0
2017-Oct-06 17:29N 37°55' E 023°05'0 0.0
2017-Oct-06 16:59N 37°55' E 023°05'0 0.0
2017-Oct-06 16:29N 37°55' E 023°05'0 0.0
2017-Oct-06 15:59N 37°55' E 023°05'0 0.0
2017-Oct-06 15:29N 37°55' E 023°05'0 0.0
2017-Oct-06 14:59N 37°55' E 023°05'0 0.0
2017-Oct-06 14:29N 37°55' E 023°05'0 0.0
2017-Oct-06 13:59N 37°55' E 023°05'0 0.0
2017-Oct-06 13:29N 37°55' E 023°05'0 0.0
2017-Oct-06 12:59N 37°55' E 023°05'0 0.0
2017-Oct-06 12:29N 37°55' E 023°05'0 0.0
2017-Oct-06 11:59N 37°55' E 023°05'0 0.0
2017-Oct-06 11:30N 37°55' E 023°05'0 0.3
2017-Oct-06 11:00N 37°55' E 023°05'0 0.0
2017-Oct-06 10:31N 37°55' E 023°05'0 0.3
2017-Oct-06 09:59N 37°55' E 023°05'0 0.3
2017-Oct-06 09:29N 37°55' E 023°05'0 0.5
2017-Oct-06 09:00N 37°55' E 023°05'0 0.6
2017-Oct-06 08:29N 37°55' E 023°05'0 0.5
2017-Oct-06 07:59N 37°55' E 023°05'0 0.0
2017-Oct-06 07:29N 37°55' E 023°05'0 0.0
2017-Oct-06 06:59N 37°55' E 023°05'0 0.0
2017-Oct-06 06:29N 37°55' E 023°05'0 0.0
2017-Oct-06 05:59N 37°55' E 023°05'1 1.4
2017-Oct-06 05:31N 37°55' E 023°06'1 1.3
2017-Oct-06 04:59N 37°55' E 023°05'0 0.0
2017-Oct-06 04:29N 37°55' E 023°05'0 0.0
2017-Oct-06 03:59N 37°55' E 023°05'0 0.0
2017-Oct-06 03:29N 37°55' E 023°05'0 0.0
2017-Oct-06 02:59N 37°55' E 023°05'0 0.0
2017-Oct-06 02:29N 37°55' E 023°05'0 0.0
2017-Oct-06 01:59N 37°55' E 023°05'0 0.0
2017-Oct-06 01:29N 37°55' E 023°05'0 0.0
2017-Oct-06 00:59N 37°55' E 023°05'0 0.0
2017-Oct-06 00:29N 37°55' E 023°05'0 0.0
2017-Oct-05 23:59N 37°55' E 023°05'0 0.0
2017-Oct-05 23:29N 37°55' E 023°05'0 0.0
2017-Oct-05 22:59N 37°55' E 023°05'0 0.0
2017-Oct-05 22:29N 37°55' E 023°05'0 0.3
2017-Oct-05 22:01N 37°55' E 023°05'0 0.0
2017-Oct-05 21:30N 37°55' E 023°05'0 0.3
2017-Oct-05 20:59N 37°55' E 023°05'0 0.0
2017-Oct-05 20:29N 37°55' E 023°05'0 0.0
2017-Oct-05 19:59N 37°55' E 023°05'0 0.0
2017-Oct-05 19:30N 37°55' E 023°05'0 0.0
2017-Oct-05 19:00N 37°55' E 023°05'0 0.0
2017-Oct-05 18:30N 37°55' E 023°05'0 0.0
2017-Oct-05 18:00N 37°55' E 023°05'0 0.0
2017-Oct-05 17:30N 37°55' E 023°05'0 0.0
2017-Oct-05 17:01N 37°55' E 023°05'0 0.1
2017-Oct-05 15:30N 37°55' E 023°05'0 0.0
2017-Oct-05 15:00N 37°55' E 023°05'0 0.0
2017-Oct-05 14:31N 37°55' E 023°05'0 0.0
2017-Oct-05 14:01N 37°55' E 023°05'0 0.0
2017-Oct-05 13:31N 37°55' E 023°05'0 0.0
2017-Oct-05 13:01N 37°55' E 023°05'0 0.0
2017-Oct-05 12:31N 37°55' E 023°05'0 0.0
2017-Oct-05 12:01N 37°55' E 023°05'0 0.0
2017-Oct-05 11:30N 37°55' E 023°05'0 0.0
2017-Oct-05 11:01N 37°55' E 023°05'0 0.0
2017-Oct-05 10:31N 37°55' E 023°05'0 0.0
2017-Oct-05 10:01N 37°55' E 023°05'0 0.3
2017-Oct-05 09:30N 37°55' E 023°05'0 0.1
2017-Oct-05 08:15N 37°55' E 023°05'0 0.0
2017-Oct-05 07:58N 37°55' E 023°05'0 0.3
2017-Oct-05 07:30N 37°55' E 023°05'0 0.0
2017-Oct-05 07:00N 37°55' E 023°05'0 0.0
2017-Oct-05 06:30N 37°55' E 023°05'0 0.0
2017-Oct-05 06:00N 37°55' E 023°05'0 0.0
2017-Oct-05 05:30N 37°55' E 023°05'0 0.0
2017-Oct-05 05:00N 37°55' E 023°05'0 0.0
2017-Oct-05 04:30N 37°55' E 023°05'0 0.0
2017-Oct-05 04:00N 37°55' E 023°05'0 0.0
2017-Oct-05 03:30N 37°55' E 023°05'0 0.0
2017-Oct-05 03:00N 37°55' E 023°05'0 0.0
2017-Oct-05 02:30N 37°55' E 023°05'0 0.0
2017-Oct-05 02:00N 37°55' E 023°05'0 0.0
2017-Oct-05 01:30N 37°55' E 023°05'0 0.0
2017-Oct-05 01:00N 37°55' E 023°05'0 0.0
2017-Oct-05 00:30N 37°55' E 023°05'0 0.0
2017-Oct-05 00:00N 37°55' E 023°05'0 0.0
2017-Oct-04 23:30N 37°55' E 023°05'0 0.0
2017-Oct-04 23:00N 37°55' E 023°05'0 0.0
2017-Oct-04 22:30N 37°55' E 023°05'0 0.0
2017-Oct-04 22:00N 37°55' E 023°05'0 0.0
2017-Oct-04 21:30N 37°55' E 023°05'0 0.0
2017-Oct-04 21:00N 37°55' E 023°05'0 0.0
2017-Oct-04 20:30N 37°55' E 023°05'0 0.3
2017-Oct-04 20:00N 37°55' E 023°05'0 0.3
2017-Oct-04 19:30N 37°55' E 023°05'0 0.3
2017-Oct-04 19:00N 37°55' E 023°05'0 0.3
2017-Oct-04 18:30N 37°55' E 023°05'0 0.0
2017-Oct-04 18:00N 37°55' E 023°05'0 0.0
2017-Oct-04 17:30N 37°55' E 023°05'0 0.0
2017-Oct-04 17:00N 37°55' E 023°05'0 0.0
2017-Oct-04 16:30N 37°55' E 023°05'0 0.0
2017-Oct-04 16:00N 37°55' E 023°05'0 0.1
2017-Oct-04 15:30N 37°55' E 023°05'0 0.1
2017-Oct-04 15:00N 37°55' E 023°05'0 0.0
2017-Oct-04 14:27N 37°55' E 023°05'0 0.0
2017-Oct-04 14:00N 37°55' E 023°05'0 0.0
2017-Oct-04 13:30N 37°55' E 023°05'0 0.0
2017-Oct-04 13:00N 37°55' E 023°05'0 0.0
2017-Oct-04 12:30N 37°55' E 023°05'0 0.0
2017-Oct-04 12:00N 37°55' E 023°05'0 0.0
2017-Oct-04 11:30N 37°55' E 023°05'0 0.0
2017-Oct-04 11:00N 37°55' E 023°05'0 0.0
2017-Oct-04 10:30N 37°55' E 023°05'0 0.0
2017-Oct-04 10:00N 37°55' E 023°05'0 0.0
2017-Oct-04 09:30N 37°55' E 023°05'0 0.0
2017-Oct-04 09:00N 37°55' E 023°05'0 0.0
2017-Oct-04 08:30N 37°55' E 023°05'0 0.0
2017-Oct-04 08:00N 37°55' E 023°05'0 0.1
2017-Oct-04 07:30N 37°55' E 023°05'0 0.1
2017-Oct-04 07:00N 37°55' E 023°05'0 0.0
2017-Oct-04 06:30N 37°55' E 023°05'0 0.0
2017-Oct-04 06:00N 37°55' E 023°05'0 0.0
2017-Oct-04 05:30N 37°55' E 023°05'0 0.0
2017-Oct-04 05:00N 37°55' E 023°05'0 0.0
2017-Oct-04 04:30N 37°55' E 023°05'0 0.0
2017-Oct-04 04:00N 37°55' E 023°05'0 0.0
2017-Oct-04 03:31N 37°55' E 023°05'0 0.3
2017-Oct-04 03:00N 37°55' E 023°05'0 0.3
2017-Oct-04 02:30N 37°55' E 023°05'0 0.0
2017-Oct-04 02:01N 37°55' E 023°05'0 0.0
2017-Oct-04 01:31N 37°55' E 023°05'0 0.0
2017-Oct-04 01:01N 37°55' E 023°05'0 0.0
2017-Oct-04 00:30N 37°55' E 023°05'0 0.0
2017-Oct-04 00:00N 37°55' E 023°05'0 0.0
2017-Oct-03 23:31N 37°55' E 023°05'0 0.0
2017-Oct-03 23:01N 37°55' E 023°05'0 0.0
2017-Oct-03 22:31N 37°55' E 023°05'0 0.0
2017-Oct-03 22:01N 37°55' E 023°05'0 0.0
2017-Oct-03 21:31N 37°55' E 023°05'0 0.0
2017-Oct-03 21:01N 37°55' E 023°05'0 0.0
2017-Oct-03 20:31N 37°55' E 023°05'0 0.0
2017-Oct-03 20:01N 37°55' E 023°05'0 0.0
2017-Oct-03 19:31N 37°55' E 023°05'0 0.0
2017-Oct-03 19:00N 37°55' E 023°05'0 0.0
2017-Oct-03 18:31N 37°55' E 023°05'0 0.0
2017-Oct-03 18:01N 37°55' E 023°05'0 0.0
2017-Oct-03 17:31N 37°55' E 023°05'0 0.0
2017-Oct-03 17:01N 37°55' E 023°05'0 0.0
2017-Oct-03 16:31N 37°55' E 023°05'0 0.3
2017-Oct-03 16:01N 37°55' E 023°05'0 0.0
2017-Oct-03 15:31N 37°55' E 023°05'0 0.0
2017-Oct-03 15:01N 37°55' E 023°05'0 0.2
2017-Oct-03 14:01N 37°55' E 023°05'0 0.1
2017-Oct-03 13:31N 37°55' E 023°05'0 0.1
2017-Oct-03 13:01N 37°55' E 023°05'0 0.1
2017-Oct-03 12:31N 37°55' E 023°05'0 0.1
2017-Oct-03 12:01N 37°55' E 023°05'0 0.3
2017-Oct-03 11:31N 37°55' E 023°05'0 0.3
2017-Oct-03 11:00N 37°55' E 023°05'0 0.0
2017-Oct-03 10:30N 37°55' E 023°05'0 0.0
2017-Oct-03 10:01N 37°55' E 023°05'0 0.0
2017-Oct-03 09:30N 37°55' E 023°05'0 0.0
2017-Oct-03 09:00N 37°55' E 023°05'0 0.0
2017-Oct-03 08:30N 37°55' E 023°05'0 0.0
2017-Oct-03 08:00N 37°55' E 023°05'0 0.0
2017-Oct-03 07:30N 37°55' E 023°05'0 0.0
2017-Oct-03 07:00N 37°55' E 023°05'0 0.0
2017-Oct-03 06:30N 37°55' E 023°05'0 0.0
2017-Oct-03 06:00N 37°55' E 023°05'0 0.0
2017-Oct-03 05:30N 37°55' E 023°05'0 0.0
2017-Oct-03 05:00N 37°55' E 023°05'0 0.0
2017-Oct-03 04:30N 37°55' E 023°05'0 0.1
2017-Oct-03 04:00N 37°55' E 023°05'0 0.1
2017-Oct-03 03:30N 37°55' E 023°05'0 0.0
2017-Oct-03 03:00N 37°55' E 023°05'0 0.0
2017-Oct-03 02:29N 37°55' E 023°05'0 0.0
2017-Oct-03 02:00N 37°55' E 023°05'0 0.0
2017-Oct-03 01:30N 37°55' E 023°05'0 0.0
2017-Oct-03 01:00N 37°55' E 023°05'0 0.0
2017-Oct-03 00:30N 37°55' E 023°05'0 0.0
2017-Oct-03 00:00N 37°55' E 023°05'0 0.0
2017-Oct-02 23:30N 37°55' E 023°05'0 0.0
2017-Oct-02 23:00N 37°55' E 023°05'0 0.0
2017-Oct-02 22:30N 37°55' E 023°05'0 0.0
2017-Oct-02 22:00N 37°55' E 023°05'0 0.0
2017-Oct-02 21:28N 37°55' E 023°05'0 0.0
2017-Oct-02 20:58N 37°55' E 023°05'0 0.0
2017-Oct-02 20:28N 37°55' E 023°05'0 0.0
2017-Oct-02 19:58N 37°55' E 023°05'0 0.0
2017-Oct-02 19:30N 37°55' E 023°05'0 0.0
2017-Oct-02 19:00N 37°55' E 023°05'0 0.0
2017-Oct-02 18:30N 37°55' E 023°05'0 0.0
2017-Oct-02 18:00N 37°55' E 023°05'0 0.0
2017-Oct-02 17:30N 37°55' E 023°05'0 0.0
2017-Oct-02 17:00N 37°55' E 023°05'0 0.0
2017-Oct-02 16:30N 37°55' E 023°05'0 0.0
2017-Oct-02 16:01N 37°55' E 023°05'0 0.4
2017-Oct-02 15:30N 37°55' E 023°05'0 0.4
2017-Oct-02 14:58N 37°55' E 023°05'0 0.0
2017-Oct-02 14:28N 37°55' E 023°05'0 0.0
2017-Oct-02 13:58N 37°55' E 023°05'0 0.0
2017-Oct-02 13:28N 37°55' E 023°05'0 0.0
2017-Oct-02 13:00N 37°55' E 023°05'0 0.2
2017-Oct-02 12:30N 37°55' E 023°05'0 0.2
2017-Oct-02 11:58N 37°55' E 023°05'0 0.0
2017-Oct-02 11:28N 37°55' E 023°05'0 0.0
2017-Oct-02 10:58N 37°55' E 023°05'0 0.0
2017-Oct-02 10:28N 37°55' E 023°05'0 0.0
2017-Oct-02 09:58N 37°55' E 023°05'0 0.0
2017-Oct-02 09:29N 37°55' E 023°05'0 0.0
2017-Oct-02 08:59N 37°55' E 023°05'0 0.0
2017-Oct-02 08:29N 37°55' E 023°05'0 0.0
2017-Oct-02 07:59N 37°55' E 023°05'0 0.0
2017-Oct-02 07:29N 37°55' E 023°05'0 0.0
2017-Oct-02 06:59N 37°55' E 023°05'0 0.0
2017-Oct-02 06:29N 37°55' E 023°05'0 0.0
2017-Oct-02 05:59N 37°55' E 023°05'0 0.0
2017-Oct-02 05:29N 37°55' E 023°05'0 0.0
2017-Oct-02 04:59N 37°55' E 023°05'0 0.0
2017-Oct-02 04:29N 37°55' E 023°05'0 0.0
2017-Oct-02 03:59N 37°55' E 023°05'0 0.0
2017-Oct-02 03:29N 37°55' E 023°05'0 0.0
2017-Oct-02 02:59N 37°55' E 023°05'0 0.0
2017-Oct-02 02:30N 37°55' E 023°05'0 0.0
2017-Oct-02 02:00N 37°55' E 023°05'0 0.0
2017-Oct-02 01:30N 37°55' E 023°05'1 1.1
2017-Oct-02 01:00N 37°55' E 023°05'0 0.1
2017-Oct-02 00:30N 37°55' E 023°05'0 0.9
2017-Oct-02 00:00N 37°55' E 023°05'0 0.0
2017-Oct-01 23:28N 37°55' E 023°05'0 0.0
2017-Oct-01 22:58N 37°55' E 023°05'0 0.0
2017-Oct-01 22:28N 37°55' E 023°05'0 0.0
2017-Oct-01 21:58N 37°55' E 023°05'0 0.0
2017-Oct-01 21:28N 37°55' E 023°05'0 0.0
2017-Oct-01 20:58N 37°55' E 023°05'0 0.0
2017-Oct-01 20:28N 37°55' E 023°05'0 0.0
2017-Oct-01 19:58N 37°55' E 023°05'0 0.0
2017-Oct-01 19:28N 37°55' E 023°05'0 0.0
2017-Oct-01 18:58N 37°55' E 023°05'0 0.0
2017-Oct-01 18:28N 37°55' E 023°05'0 0.0
2017-Oct-01 17:58N 37°55' E 023°05'0 0.0
2017-Oct-01 17:28N 37°55' E 023°05'0 0.0
2017-Oct-01 16:58N 37°55' E 023°05'0 0.0
2017-Oct-01 16:28N 37°55' E 023°05'0 0.0
2017-Oct-01 15:58N 37°55' E 023°05'0 0.0
2017-Oct-01 15:28N 37°55' E 023°05'0 0.0
2017-Oct-01 14:58N 37°55' E 023°05'0 0.0
2017-Oct-01 14:28N 37°55' E 023°05'0 0.2
2017-Oct-01 14:00N 37°55' E 023°05'1 1.2
2017-Oct-01 13:30N 37°55' E 023°05'1 1.3
2017-Oct-01 13:00N 37°55' E 023°05'0 0.1
2017-Oct-01 12:29N 37°55' E 023°05'0 0.0
2017-Oct-01 11:59N 37°55' E 023°05'0 0.0
2017-Oct-01 11:29N 37°55' E 023°05'0 0.0
2017-Oct-01 10:59N 37°55' E 023°05'0 0.0
2017-Oct-01 10:29N 37°55' E 023°05'0 0.0
2017-Oct-01 09:59N 37°55' E 023°05'0 0.0
2017-Oct-01 09:30N 37°55' E 023°05'0 0.1
2017-Oct-01 09:00N 37°55' E 023°05'0 0.1
2017-Oct-01 08:30N 37°55' E 023°05'0 0.0
2017-Oct-01 08:00N 37°55' E 023°05'0 0.4
2017-Oct-01 07:29N 37°55' E 023°05'0 0.3
2017-Oct-01 06:59N 37°55' E 023°05'0 0.0
2017-Oct-01 06:29N 37°55' E 023°05'0 0.0
2017-Oct-01 05:59N 37°55' E 023°05'0 0.0
2017-Oct-01 05:29N 37°55' E 023°05'0 0.0
2017-Oct-01 04:59N 37°55' E 023°05'0 0.0
2017-Oct-01 04:29N 37°55' E 023°05'0 0.0
2017-Oct-01 03:59N 37°55' E 023°05'0 0.0
2017-Oct-01 03:29N 37°55' E 023°05'0 0.0
2017-Oct-01 02:59N 37°55' E 023°05'0 0.0
2017-Sep-30 01:59N 37°55' E 023°05'0 0.0
2017-Sep-30 01:29N 37°55' E 023°05'0 0.0
2017-Sep-30 00:59N 37°55' E 023°05'0 0.0
2017-Sep-30 00:29N 37°55' E 023°05'0 0.0
2017-Sep-29 23:59N 37°55' E 023°05'0 0.0
2017-Sep-29 23:29N 37°55' E 023°05'0 0.0
2017-Sep-29 22:59N 37°55' E 023°05'0 0.0
2017-Sep-29 22:29N 37°55' E 023°05'0 0.0
2017-Sep-29 21:59N 37°55' E 023°05'0 0.0
2017-Sep-29 21:29N 37°55' E 023°05'0 0.0
2017-Sep-29 20:59N 37°55' E 023°05'0 0.0
2017-Sep-29 20:29N 37°55' E 023°05'0 0.0
2017-Sep-29 19:59N 37°55' E 023°05'0 0.0
2017-Sep-29 19:29N 37°55' E 023°05'0 0.0
2017-Sep-29 18:59N 37°55' E 023°05'0 0.0
2017-Sep-29 18:29N 37°55' E 023°05'0 0.0
2017-Sep-29 17:59N 37°55' E 023°05'0 0.0
2017-Sep-29 17:29N 37°55' E 023°05'0 0.0
2017-Sep-29 17:00N 37°55' E 023°05'0 0.3
2017-Sep-29 16:30N 37°55' E 023°05'0 0.0
2017-Sep-29 16:00N 37°55' E 023°05'0 0.0
2017-Sep-29 15:30N 37°55' E 023°05'0 0.0
2017-Sep-29 15:00N 37°55' E 023°05'0 0.0
2017-Sep-29 14:30N 37°55' E 023°05'0 0.0
2017-Sep-29 14:00N 37°55' E 023°05'0 0.1
2017-Sep-29 13:30N 37°55' E 023°05'0 0.3
2017-Sep-29 13:00N 37°55' E 023°05'0 0.2
2017-Sep-29 12:30N 37°55' E 023°05'0 0.0
2017-Sep-29 12:00N 37°55' E 023°05'0 0.0
2017-Sep-29 11:30N 37°55' E 023°05'0 0.5
2017-Sep-29 11:00N 37°55' E 023°06'0 0.5
2017-Sep-29 10:30N 37°55' E 023°05'0 0.0
2017-Sep-29 10:00N 37°55' E 023°05'0 0.0
2017-Sep-29 09:30N 37°55' E 023°05'  
Track history (hours):
 
Tides and Currents Weather Stations Pressure Air Temp Water Temp Dewpoint Dewpoint Depression Visibility Wind Speed Wind Dir Waves Ship Positions

Amalia

Last reported at 2017-Oct-09 09:15 UTC. Time now 2017-Oct-17 22:31 UTC.
Position N 37°57' E 023°33'.
Warning: this ship's position is 8 days out of date.

; draft 2.9 m.

Type: Tug. MMSI: 237092200.

Date/timePositionNaut miles runAvg speedWind from/ knotsBaromVisibWave heightAir tempDewpointWater temp
2017-Oct-09 09:15N 37°57' E 023°33'0 0.0
2017-Oct-09 09:00N 37°57' E 023°33'0 0.0
2017-Oct-09 08:30N 37°57' E 023°33'0 0.0
2017-Oct-09 07:58N 37°57' E 023°33'0 0.1
2017-Oct-09 07:28N 37°57' E 023°33'0 0.0
2017-Oct-09 06:58N 37°57' E 023°33'0 0.0
2017-Oct-09 06:29N 37°57' E 023°33'0 0.1
2017-Oct-09 06:01N 37°57' E 023°33'2 3.7
2017-Oct-09 05:31N 37°56' E 023°34'4 7.8
2017-Oct-09 05:01N 37°53' E 023°31'4 7.9
2017-Oct-09 04:31N 37°51' E 023°26'4 8.0
2017-Oct-09 04:01N 37°51' E 023°21'4 7.6
2017-Oct-09 03:27N 37°52' E 023°16'3 7.7
2017-Oct-09 03:00N 37°53' E 023°12'4 7.5
2017-Oct-09 02:31N 37°54' E 023°08'2 3.6
2017-Oct-09 01:58N 37°55' E 023°05'0 0.0
2017-Oct-09 01:28N 37°55' E 023°05'0 0.0
2017-Oct-09 00:58N 37°55' E 023°05'0 0.0
2017-Oct-09 00:28N 37°55' E 023°05'0 0.0
2017-Oct-08 23:58N 37°55' E 023°05'0 0.0
2017-Oct-08 23:28N 37°55' E 023°05'0 0.0
2017-Oct-08 22:58N 37°55' E 023°05'0 0.0
2017-Oct-08 22:28N 37°55' E 023°05'0 0.0
2017-Oct-08 21:58N 37°55' E 023°05'0 0.0
2017-Oct-08 21:28N 37°55' E 023°05'0 0.0
2017-Oct-08 20:58N 37°55' E 023°05'0 0.0
2017-Oct-08 20:28N 37°55' E 023°05'0 0.0
2017-Oct-08 19:58N 37°55' E 023°05'0 0.0
2017-Oct-08 19:28N 37°55' E 023°05'0 0.0
2017-Oct-08 18:58N 37°55' E 023°05'0 0.0
2017-Oct-08 18:28N 37°55' E 023°05'0 0.0
2017-Oct-08 17:58N 37°55' E 023°05'0 0.0
2017-Oct-08 17:28N 37°55' E 023°05'0 0.0
2017-Oct-08 16:58N 37°55' E 023°05'0 0.0
2017-Oct-08 16:28N 37°55' E 023°05'0 0.0
2017-Oct-08 15:58N 37°55' E 023°05'0 0.0
2017-Oct-08 15:28N 37°55' E 023°05'0 0.0
2017-Oct-08 14:58N 37°55' E 023°05'0 0.0
2017-Oct-08 14:30N 37°55' E 023°05'0 0.0
2017-Oct-08 14:00N 37°55' E 023°05'0 0.2
2017-Oct-08 13:30N 37°55' E 023°05'0 0.0
2017-Oct-08 13:00N 37°55' E 023°05'0 0.0
2017-Oct-08 12:30N 37°55' E 023°05'0 0.0
2017-Oct-08 12:00N 37°55' E 023°05'0 0.0
2017-Oct-08 11:30N 37°55' E 023°05'0 0.0
2017-Oct-08 11:00N 37°55' E 023°05'0 0.0
2017-Oct-08 10:30N 37°55' E 023°05'0 0.0
2017-Oct-08 10:00N 37°55' E 023°05'0 0.0
2017-Oct-08 09:30N 37°55' E 023°05'0 0.0
2017-Oct-08 09:00N 37°55' E 023°05'0 0.9
2017-Oct-08 08:30N 37°54' E 023°05'1 1.1
2017-Oct-08 08:00N 37°55' E 023°06'0 0.1
2017-Oct-08 07:30N 37°55' E 023°06'0 0.3
2017-Oct-08 07:00N 37°55' E 023°06'1 1.2
2017-Oct-08 06:30N 37°55' E 023°05'0 0.0
2017-Oct-08 05:59N 37°55' E 023°05'0 0.0
2017-Oct-08 05:29N 37°55' E 023°05'0 0.0
2017-Oct-08 04:59N 37°55' E 023°05'0 0.0
2017-Oct-08 04:29N 37°55' E 023°05'0 0.0
2017-Oct-08 03:59N 37°55' E 023°05'0 0.0
2017-Oct-08 03:29N 37°55' E 023°05'0 0.0
2017-Oct-08 02:59N 37°55' E 023°05'0 0.0
2017-Oct-08 02:29N 37°55' E 023°05'0 0.0
2017-Oct-08 01:59N 37°55' E 023°05'0 0.0
2017-Oct-08 01:29N 37°55' E 023°05'0 0.0
2017-Oct-08 00:59N 37°55' E 023°05'0 0.0
2017-Oct-08 00:29N 37°55' E 023°05'0 0.0
2017-Oct-07 23:59N 37°55' E 023°05'0 0.0
2017-Oct-07 23:29N 37°55' E 023°05'0 0.0
2017-Oct-07 22:59N 37°55' E 023°05'0 0.0
2017-Oct-07 22:29N 37°55' E 023°05'0 0.0
2017-Oct-07 21:59N 37°55' E 023°05'0 0.0
2017-Oct-07 21:30N 37°55' E 023°05'0 0.0
2017-Oct-07 21:00N 37°55' E 023°05'0 0.0
2017-Oct-07 20:30N 37°55' E 023°05'0 0.0
2017-Oct-07 20:00N 37°55' E 023°05'0 0.0
2017-Oct-07 19:30N 37°55' E 023°05'0 0.0
2017-Oct-07 19:00N 37°55' E 023°05'0 0.0
2017-Oct-07 18:30N 37°55' E 023°05'0 0.0
2017-Oct-07 18:00N 37°55' E 023°05'0 0.0
2017-Oct-07 17:30N 37°55' E 023°05'0 0.0
2017-Oct-07 17:00N 37°55' E 023°05'0 0.0
2017-Oct-07 16:30N 37°55' E 023°05'0 0.4
2017-Oct-07 16:00N 37°55' E 023°05'0 0.4
2017-Oct-07 15:30N 37°55' E 023°05'0 0.0
2017-Oct-07 15:00N 37°55' E 023°05'0 0.2
2017-Oct-07 14:29N 37°55' E 023°05'0 0.2
2017-Oct-07 14:00N 37°55' E 023°05'0 0.0
2017-Oct-07 13:30N 37°55' E 023°05'0 0.0
2017-Oct-07 13:00N 37°55' E 023°05'0 0.0
2017-Oct-07 12:30N 37°55' E 023°05'0 0.0
2017-Oct-07 12:00N 37°55' E 023°05'0 0.0
2017-Oct-07 11:30N 37°55' E 023°05'0 0.0
2017-Oct-07 11:00N 37°55' E 023°05'0 0.0
2017-Oct-07 10:30N 37°55' E 023°05'0 0.0
2017-Oct-07 10:00N 37°55' E 023°05'0 0.0
2017-Oct-07 09:30N 37°55' E 023°05'0 0.0
2017-Oct-07 09:00N 37°55' E 023°05'0 0.7
2017-Oct-07 08:31N 37°55' E 023°05'1 1.0
2017-Oct-07 08:00N 37°54' E 023°05'0 0.0
2017-Oct-07 07:30N 37°54' E 023°05'1 1.8
2017-Oct-07 07:00N 37°55' E 023°05'0 0.0
2017-Oct-07 06:30N 37°55' E 023°05'0 0.0
2017-Oct-07 06:00N 37°55' E 023°05'0 0.0
2017-Oct-07 05:30N 37°55' E 023°05'0 0.0
2017-Oct-07 05:00N 37°55' E 023°05'0 0.0
2017-Oct-07 04:30N 37°55' E 023°05'0 0.0
2017-Oct-07 04:00N 37°55' E 023°05'0 0.0
2017-Oct-07 03:30N 37°55' E 023°05'0 0.0
2017-Oct-07 03:00N 37°55' E 023°05'0 0.0
2017-Oct-07 02:30N 37°55' E 023°05'0 0.0
2017-Oct-07 02:00N 37°55' E 023°05'0 0.0
2017-Oct-07 01:30N 37°55' E 023°05'0 0.0
2017-Oct-07 01:00N 37°55' E 023°05'0 0.0
2017-Oct-07 00:30N 37°55' E 023°05'0 0.0
2017-Oct-07 00:00N 37°55' E 023°05'0 0.0
2017-Oct-06 23:30N 37°55' E 023°05'0 0.0
2017-Oct-06 23:00N 37°55' E 023°05'0 0.1
2017-Oct-06 22:30N 37°55' E 023°05'0 0.1
2017-Oct-06 22:00N 37°55' E 023°05'0 0.0
2017-Oct-06 21:28N 37°55' E 023°05'0 0.0
2017-Oct-06 20:58N 37°55' E 023°05'0 0.0
2017-Oct-06 20:28N 37°55' E 023°05'0 0.0
2017-Oct-06 19:58N 37°55' E 023°05'0 0.1
2017-Oct-06 19:30N 37°55' E 023°05'0 0.1
2017-Oct-06 18:59N 37°55' E 023°05'0 0.0
2017-Oct-06 18:29N 37°55' E 023°05'0 0.0
2017-Oct-06 17:59N 37°55' E 023°05'0 0.0
2017-Oct-06 17:29N 37°55' E 023°05'0 0.0
2017-Oct-06 16:59N 37°55' E 023°05'0 0.0
2017-Oct-06 16:29N 37°55' E 023°05'0 0.0
2017-Oct-06 15:59N 37°55' E 023°05'0 0.0
2017-Oct-06 15:29N 37°55' E 023°05'0 0.0
2017-Oct-06 14:59N 37°55' E 023°05'0 0.0
2017-Oct-06 14:29N 37°55' E 023°05'0 0.0
2017-Oct-06 13:59N 37°55' E 023°05'0 0.0
2017-Oct-06 13:29N 37°55' E 023°05'0 0.0
2017-Oct-06 12:59N 37°55' E 023°05'0 0.0
2017-Oct-06 12:29N 37°55' E 023°05'0 0.0
2017-Oct-06 11:59N 37°55' E 023°05'0 0.0
2017-Oct-06 11:30N 37°55' E 023°05'0 0.3
2017-Oct-06 11:00N 37°55' E 023°05'0 0.0
2017-Oct-06 10:31N 37°55' E 023°05'0 0.3
2017-Oct-06 09:59N 37°55' E 023°05'0 0.3
2017-Oct-06 09:29N 37°55' E 023°05'0 0.5
2017-Oct-06 09:00N 37°55' E 023°05'0 0.6
2017-Oct-06 08:29N 37°55' E 023°05'0 0.5
2017-Oct-06 07:59N 37°55' E 023°05'0 0.0
2017-Oct-06 07:29N 37°55' E 023°05'0 0.0
2017-Oct-06 06:59N 37°55' E 023°05'0 0.0
2017-Oct-06 06:29N 37°55' E 023°05'0 0.0
2017-Oct-06 05:59N 37°55' E 023°05'1 1.4
2017-Oct-06 05:31N 37°55' E 023°06'1 1.3
2017-Oct-06 04:59N 37°55' E 023°05'0 0.0
2017-Oct-06 04:29N 37°55' E 023°05'0 0.0
2017-Oct-06 03:59N 37°55' E 023°05'0 0.0
2017-Oct-06 03:29N 37°55' E 023°05'0 0.0
2017-Oct-06 02:59N 37°55' E 023°05'0 0.0
2017-Oct-06 02:29N 37°55' E 023°05'0 0.0
2017-Oct-06 01:59N 37°55' E 023°05'0 0.0
2017-Oct-06 01:29N 37°55' E 023°05'0 0.0
2017-Oct-06 00:59N 37°55' E 023°05'0 0.0
2017-Oct-06 00:29N 37°55' E 023°05'0 0.0
2017-Oct-05 23:59N 37°55' E 023°05'0 0.0
2017-Oct-05 23:29N 37°55' E 023°05'0 0.0
2017-Oct-05 22:59N 37°55' E 023°05'0 0.0
2017-Oct-05 22:29N 37°55' E 023°05'0 0.3
2017-Oct-05 22:01N 37°55' E 023°05'0 0.0
2017-Oct-05 21:30N 37°55' E 023°05'0 0.3
2017-Oct-05 20:59N 37°55' E 023°05'0 0.0
2017-Oct-05 20:29N 37°55' E 023°05'0 0.0
2017-Oct-05 19:59N 37°55' E 023°05'0 0.0
2017-Oct-05 19:30N 37°55' E 023°05'0 0.0
2017-Oct-05 19:00N 37°55' E 023°05'0 0.0
2017-Oct-05 18:30N 37°55' E 023°05'0 0.0
2017-Oct-05 18:00N 37°55' E 023°05'0 0.0
2017-Oct-05 17:30N 37°55' E 023°05'0 0.0
2017-Oct-05 17:01N 37°55' E 023°05'0 0.1
2017-Oct-05 15:30N 37°55' E 023°05'0 0.0
2017-Oct-05 15:00N 37°55' E 023°05'0 0.0
2017-Oct-05 14:31N 37°55' E 023°05'0 0.0
2017-Oct-05 14:01N 37°55' E 023°05'0 0.0
2017-Oct-05 13:31N 37°55' E 023°05'0 0.0
2017-Oct-05 13:01N 37°55' E 023°05'0 0.0
2017-Oct-05 12:31N 37°55' E 023°05'0 0.0
2017-Oct-05 12:01N 37°55' E 023°05'0 0.0
2017-Oct-05 11:30N 37°55' E 023°05'0 0.0
2017-Oct-05 11:01N 37°55' E 023°05'0 0.0
2017-Oct-05 10:31N 37°55' E 023°05'0 0.0
2017-Oct-05 10:01N 37°55' E 023°05'0 0.3
2017-Oct-05 09:30N 37°55' E 023°05'0 0.1
2017-Oct-05 08:15N 37°55' E 023°05'0 0.0
2017-Oct-05 07:58N 37°55' E 023°05'0 0.3
2017-Oct-05 07:30N 37°55' E 023°05'0 0.0
2017-Oct-05 07:00N 37°55' E 023°05'0 0.0
2017-Oct-05 06:30N 37°55' E 023°05'0 0.0
2017-Oct-05 06:00N 37°55' E 023°05'0 0.0
2017-Oct-05 05:30N 37°55' E 023°05'0 0.0
2017-Oct-05 05:00N 37°55' E 023°05'0 0.0
2017-Oct-05 04:30N 37°55' E 023°05'0 0.0
2017-Oct-05 04:00N 37°55' E 023°05'0 0.0
2017-Oct-05 03:30N 37°55' E 023°05'0 0.0
2017-Oct-05 03:00N 37°55' E 023°05'0 0.0
2017-Oct-05 02:30N 37°55' E 023°05'0 0.0
2017-Oct-05 02:00N 37°55' E 023°05'0 0.0
2017-Oct-05 01:30N 37°55' E 023°05'0 0.0
2017-Oct-05 01:00N 37°55' E 023°05'0 0.0
2017-Oct-05 00:30N 37°55' E 023°05'0 0.0
2017-Oct-05 00:00N 37°55' E 023°05'0 0.0
2017-Oct-04 23:30N 37°55' E 023°05'0 0.0
2017-Oct-04 23:00N 37°55' E 023°05'0 0.0
2017-Oct-04 22:30N 37°55' E 023°05'0 0.0
2017-Oct-04 22:00N 37°55' E 023°05'0 0.0
2017-Oct-04 21:30N 37°55' E 023°05'0 0.0
2017-Oct-04 21:00N 37°55' E 023°05'0 0.0
2017-Oct-04 20:30N 37°55' E 023°05'0 0.3
2017-Oct-04 20:00N 37°55' E 023°05'0 0.3
2017-Oct-04 19:30N 37°55' E 023°05'0 0.3
2017-Oct-04 19:00N 37°55' E 023°05'0 0.3
2017-Oct-04 18:30N 37°55' E 023°05'0 0.0
2017-Oct-04 18:00N 37°55' E 023°05'0 0.0
2017-Oct-04 17:30N 37°55' E 023°05'0 0.0
2017-Oct-04 17:00N 37°55' E 023°05'0 0.0
2017-Oct-04 16:30N 37°55' E 023°05'0 0.0
2017-Oct-04 16:00N 37°55' E 023°05'0 0.1
2017-Oct-04 15:30N 37°55' E 023°05'0 0.1
2017-Oct-04 15:00N 37°55' E 023°05'0 0.0
2017-Oct-04 14:27N 37°55' E 023°05'0 0.0
2017-Oct-04 14:00N 37°55' E 023°05'0 0.0
2017-Oct-04 13:30N 37°55' E 023°05'0 0.0
2017-Oct-04 13:00N 37°55' E 023°05'0 0.0
2017-Oct-04 12:30N 37°55' E 023°05'0 0.0
2017-Oct-04 12:00N 37°55' E 023°05'0 0.0
2017-Oct-04 11:30N 37°55' E 023°05'0 0.0
2017-Oct-04 11:00N 37°55' E 023°05'0 0.0
2017-Oct-04 10:30N 37°55' E 023°05'0 0.0
2017-Oct-04 10:00N 37°55' E 023°05'0 0.0
2017-Oct-04 09:30N 37°55' E 023°05'0 0.0
2017-Oct-04 09:00N 37°55' E 023°05'0 0.0
2017-Oct-04 08:30N 37°55' E 023°05'0 0.0
2017-Oct-04 08:00N 37°55' E 023°05'0 0.1
2017-Oct-04 07:30N 37°55' E 023°05'0 0.1
2017-Oct-04 07:00N 37°55' E 023°05'0 0.0
2017-Oct-04 06:30N 37°55' E 023°05'0 0.0
2017-Oct-04 06:00N 37°55' E 023°05'0 0.0
2017-Oct-04 05:30N 37°55' E 023°05'0 0.0
2017-Oct-04 05:00N 37°55' E 023°05'0 0.0
2017-Oct-04 04:30N 37°55' E 023°05'0 0.0
2017-Oct-04 04:00N 37°55' E 023°05'0 0.0
2017-Oct-04 03:31N 37°55' E 023°05'0 0.3
2017-Oct-04 03:00N 37°55' E 023°05'0 0.3
2017-Oct-04 02:30N 37°55' E 023°05'0 0.0
2017-Oct-04 02:01N 37°55' E 023°05'0 0.0
2017-Oct-04 01:31N 37°55' E 023°05'0 0.0
2017-Oct-04 01:01N 37°55' E 023°05'0 0.0
2017-Oct-04 00:30N 37°55' E 023°05'0 0.0
2017-Oct-04 00:00N 37°55' E 023°05'0 0.0
2017-Oct-03 23:31N 37°55' E 023°05'0 0.0
2017-Oct-03 23:01N 37°55' E 023°05'0 0.0
2017-Oct-03 22:31N 37°55' E 023°05'0 0.0
2017-Oct-03 22:01N 37°55' E 023°05'0 0.0
2017-Oct-03 21:31N 37°55' E 023°05'0 0.0
2017-Oct-03 21:01N 37°55' E 023°05'0 0.0
2017-Oct-03 20:31N 37°55' E 023°05'0 0.0
2017-Oct-03 20:01N 37°55' E 023°05'0 0.0
2017-Oct-03 19:31N 37°55' E 023°05'0 0.0
2017-Oct-03 19:00N 37°55' E 023°05'0 0.0
2017-Oct-03 18:31N 37°55' E 023°05'0 0.0
2017-Oct-03 18:01N 37°55' E 023°05'0 0.0
2017-Oct-03 17:31N 37°55' E 023°05'0 0.0
2017-Oct-03 17:01N 37°55' E 023°05'0 0.0
2017-Oct-03 16:31N 37°55' E 023°05'0 0.3
2017-Oct-03 16:01N 37°55' E 023°05'0 0.0
2017-Oct-03 15:31N 37°55' E 023°05'0 0.0
2017-Oct-03 15:01N 37°55' E 023°05'0 0.2
2017-Oct-03 14:01N 37°55' E 023°05'0 0.1
2017-Oct-03 13:31N 37°55' E 023°05'0 0.1
2017-Oct-03 13:01N 37°55' E 023°05'0 0.1
2017-Oct-03 12:31N 37°55' E 023°05'0 0.1
2017-Oct-03 12:01N 37°55' E 023°05'0 0.3
2017-Oct-03 11:31N 37°55' E 023°05'0 0.3
2017-Oct-03 11:00N 37°55' E 023°05'0 0.0
2017-Oct-03 10:30N 37°55' E 023°05'0 0.0
2017-Oct-03 10:01N 37°55' E 023°05'0 0.0
2017-Oct-03 09:30N 37°55' E 023°05'0 0.0
2017-Oct-03 09:00N 37°55' E 023°05'0 0.0
2017-Oct-03 08:30N 37°55' E 023°05'0 0.0
2017-Oct-03 08:00N 37°55' E 023°05'0 0.0
2017-Oct-03 07:30N 37°55' E 023°05'0 0.0
2017-Oct-03 07:00N 37°55' E 023°05'0 0.0
2017-Oct-03 06:30N 37°55' E 023°05'0 0.0
2017-Oct-03 06:00N 37°55' E 023°05'0 0.0
2017-Oct-03 05:30N 37°55' E 023°05'0 0.0
2017-Oct-03 05:00N 37°55' E 023°05'0 0.0
2017-Oct-03 04:30N 37°55' E 023°05'0 0.1
2017-Oct-03 04:00N 37°55' E 023°05'0 0.1
2017-Oct-03 03:30N 37°55' E 023°05'0 0.0
2017-Oct-03 03:00N 37°55' E 023°05'0 0.0
2017-Oct-03 02:29N 37°55' E 023°05'0 0.0
2017-Oct-03 02:00N 37°55' E 023°05'0 0.0
2017-Oct-03 01:30N 37°55' E 023°05'0 0.0
2017-Oct-03 01:00N 37°55' E 023°05'0 0.0
2017-Oct-03 00:30N 37°55' E 023°05'0 0.0
2017-Oct-03 00:00N 37°55' E 023°05'0 0.0
2017-Oct-02 23:30N 37°55' E 023°05'0 0.0
2017-Oct-02 23:00N 37°55' E 023°05'0 0.0
2017-Oct-02 22:30N 37°55' E 023°05'0 0.0
2017-Oct-02 22:00N 37°55' E 023°05'0 0.0
2017-Oct-02 21:28N 37°55' E 023°05'0 0.0
2017-Oct-02 20:58N 37°55' E 023°05'0 0.0
2017-Oct-02 20:28N 37°55' E 023°05'0 0.0
2017-Oct-02 19:58N 37°55' E 023°05'0 0.0
2017-Oct-02 19:30N 37°55' E 023°05'0 0.0
2017-Oct-02 19:00N 37°55' E 023°05'0 0.0
2017-Oct-02 18:30N 37°55' E 023°05'0 0.0
2017-Oct-02 18:00N 37°55' E 023°05'0 0.0
2017-Oct-02 17:30N 37°55' E 023°05'0 0.0
2017-Oct-02 17:00N 37°55' E 023°05'0 0.0
2017-Oct-02 16:30N 37°55' E 023°05'0 0.0
2017-Oct-02 16:01N 37°55' E 023°05'0 0.4
2017-Oct-02 15:30N 37°55' E 023°05'0 0.4
2017-Oct-02 14:58N 37°55' E 023°05'0 0.0
2017-Oct-02 14:28N 37°55' E 023°05'0 0.0
2017-Oct-02 13:58N 37°55' E 023°05'0 0.0
2017-Oct-02 13:28N 37°55' E 023°05'0 0.0
2017-Oct-02 13:00N 37°55' E 023°05'0 0.2
2017-Oct-02 12:30N 37°55' E 023°05'0 0.2
2017-Oct-02 11:58N 37°55' E 023°05'0 0.0
2017-Oct-02 11:28N 37°55' E 023°05'0 0.0
2017-Oct-02 10:58N 37°55' E 023°05'0 0.0
2017-Oct-02 10:28N 37°55' E 023°05'0 0.0
2017-Oct-02 09:58N 37°55' E 023°05'0 0.0
2017-Oct-02 09:29N 37°55' E 023°05'0 0.0
2017-Oct-02 08:59N 37°55' E 023°05'0 0.0
2017-Oct-02 08:29N 37°55' E 023°05'0 0.0
2017-Oct-02 07:59N 37°55' E 023°05'0 0.0
2017-Oct-02 07:29N 37°55' E 023°05'0 0.0
2017-Oct-02 06:59N 37°55' E 023°05'0 0.0
2017-Oct-02 06:29N 37°55' E 023°05'0 0.0
2017-Oct-02 05:59N 37°55' E 023°05'0 0.0
2017-Oct-02 05:29N 37°55' E 023°05'0 0.0
2017-Oct-02 04:59N 37°55' E 023°05'0 0.0
2017-Oct-02 04:29N 37°55' E 023°05'0 0.0
2017-Oct-02 03:59N 37°55' E 023°05'0 0.0
2017-Oct-02 03:29N 37°55' E 023°05'0 0.0
2017-Oct-02 02:59N 37°55' E 023°05'0 0.0
2017-Oct-02 02:30N 37°55' E 023°05'0 0.0
2017-Oct-02 02:00N 37°55' E 023°05'0 0.0
2017-Oct-02 01:30N 37°55' E 023°05'1 1.1
2017-Oct-02 01:00N 37°55' E 023°05'0 0.1
2017-Oct-02 00:30N 37°55' E 023°05'0 0.9
2017-Oct-02 00:00N 37°55' E 023°05'0 0.0
2017-Oct-01 23:28N 37°55' E 023°05'0 0.0
2017-Oct-01 22:58N 37°55' E 023°05'0 0.0
2017-Oct-01 22:28N 37°55' E 023°05'0 0.0
2017-Oct-01 21:58N 37°55' E 023°05'0 0.0
2017-Oct-01 21:28N 37°55' E 023°05'0 0.0
2017-Oct-01 20:58N 37°55' E 023°05'0 0.0
2017-Oct-01 20:28N 37°55' E 023°05'0 0.0
2017-Oct-01 19:58N 37°55' E 023°05'0 0.0
2017-Oct-01 19:28N 37°55' E 023°05'0 0.0
2017-Oct-01 18:58N 37°55' E 023°05'0 0.0
2017-Oct-01 18:28N 37°55' E 023°05'0 0.0
2017-Oct-01 17:58N 37°55' E 023°05'0 0.0
2017-Oct-01 17:28N 37°55' E 023°05'0 0.0
2017-Oct-01 16:58N 37°55' E 023°05'0 0.0
2017-Oct-01 16:28N 37°55' E 023°05'0 0.0
2017-Oct-01 15:58N 37°55' E 023°05'0 0.0
2017-Oct-01 15:28N 37°55' E 023°05'0 0.0
2017-Oct-01 14:58N 37°55' E 023°05'0 0.0
2017-Oct-01 14:28N 37°55' E 023°05'0 0.2
2017-Oct-01 14:00N 37°55' E 023°05'1 1.2
2017-Oct-01 13:30N 37°55' E 023°05'1 1.3
2017-Oct-01 13:00N 37°55' E 023°05'0 0.1
2017-Oct-01 12:29N 37°55' E 023°05'0 0.0
2017-Oct-01 11:59N 37°55' E 023°05'0 0.0
2017-Oct-01 11:29N 37°55' E 023°05'0 0.0
2017-Oct-01 10:59N 37°55' E 023°05'0 0.0
2017-Oct-01 10:29N 37°55' E 023°05'0 0.0
2017-Oct-01 09:59N 37°55' E 023°05'0 0.0
2017-Oct-01 09:30N 37°55' E 023°05'0 0.1
2017-Oct-01 09:00N 37°55' E 023°05'0 0.1
2017-Oct-01 08:30N 37°55' E 023°05'0 0.0
2017-Oct-01 08:00N 37°55' E 023°05'0 0.4
2017-Oct-01 07:29N 37°55' E 023°05'0 0.3
2017-Oct-01 06:59N 37°55' E 023°05'0 0.0
2017-Oct-01 06:29N 37°55' E 023°05'0 0.0
2017-Oct-01 05:59N 37°55' E 023°05'0 0.0
2017-Oct-01 05:29N 37°55' E 023°05'0 0.0
2017-Oct-01 04:59N 37°55' E 023°05'0 0.0
2017-Oct-01 04:29N 37°55' E 023°05'0 0.0
2017-Oct-01 03:59N 37°55' E 023°05'0 0.0
2017-Oct-01 03:29N 37°55' E 023°05'0 0.0
2017-Oct-01 02:59N 37°55' E 023°05'0 0.0
2017-Sep-30 01:59N 37°55' E 023°05'0 0.0
2017-Sep-30 01:29N 37°55' E 023°05'0 0.0
2017-Sep-30 00:59N 37°55' E 023°05'0 0.0
2017-Sep-30 00:29N 37°55' E 023°05'0 0.0
2017-Sep-29 23:59N 37°55' E 023°05'0 0.0
2017-Sep-29 23:29N 37°55' E 023°05'0 0.0
2017-Sep-29 22:59N 37°55' E 023°05'0 0.0
2017-Sep-29 22:29N 37°55' E 023°05'0 0.0
2017-Sep-29 21:59N 37°55' E 023°05'0 0.0
2017-Sep-29 21:29N 37°55' E 023°05'0 0.0
2017-Sep-29 20:59N 37°55' E 023°05'0 0.0
2017-Sep-29 20:29N 37°55' E 023°05'0 0.0
2017-Sep-29 19:59N 37°55' E 023°05'0 0.0
2017-Sep-29 19:29N 37°55' E 023°05'0 0.0
2017-Sep-29 18:59N 37°55' E 023°05'0 0.0
2017-Sep-29 18:29N 37°55' E 023°05'0 0.0
2017-Sep-29 17:59N 37°55' E 023°05'0 0.0
2017-Sep-29 17:29N 37°55' E 023°05'0 0.0
2017-Sep-29 17:00N 37°55' E 023°05'0 0.3
2017-Sep-29 16:30N 37°55' E 023°05'0 0.0
2017-Sep-29 16:00N 37°55' E 023°05'0 0.0
2017-Sep-29 15:30N 37°55' E 023°05'0 0.0
2017-Sep-29 15:00N 37°55' E 023°05'0 0.0
2017-Sep-29 14:30N 37°55' E 023°05'0 0.0
2017-Sep-29 14:00N 37°55' E 023°05'0 0.1
2017-Sep-29 13:30N 37°55' E 023°05'0 0.3
2017-Sep-29 13:00N 37°55' E 023°05'0 0.2
2017-Sep-29 12:30N 37°55' E 023°05'0 0.0
2017-Sep-29 12:00N 37°55' E 023°05'0 0.0
2017-Sep-29 11:30N 37°55' E 023°05'0 0.5
2017-Sep-29 11:00N 37°55' E 023°06'0 0.5
2017-Sep-29 10:30N 37°55' E 023°05'0 0.0
2017-Sep-29 10:00N 37°55' E 023°05'0 0.0
2017-Sep-29 09:30N 37°55' E 023°05'  

Dump ship's entire track history